Time;durP1;ratioP1;P1;durP2;ratioP2;P2;SDS_P1;SDS_P2;PMS_P1;PMS_P2;Temp;Humidity;BMP_temperature;BMP_pressure;BME280_temperature;BME280_humidity;BME280_pressure;Samples;Min_cycle;Max_cycle;Signal;HPM_P1;HPM_P2
2021/01/27 00:00:30;;;;;;;9.32;4.78;;;5.30;76.00;;;;;;4916467;29;20024;-75
2021/01/27 00:02:57;;;;;;;9.52;4.32;;;5.30;76.00;;;;;;4915864;29;20021;-76
2021/01/27 00:05:35;;;;;;;7.57;4.65;;;5.20;75.90;;;;;;4899952;29;20031;-76
2021/01/27 00:08:01;;;;;;;7.13;4.03;;;5.20;75.80;;;;;;4899959;29;20031;-76
2021/01/27 00:10:28;;;;;;;7.35;4.40;;;5.20;75.80;;;;;;4916753;29;20492;-75
2021/01/27 00:12:54;;;;;;;7.60;4.35;;;5.20;75.80;;;;;;4917105;29;20071;-76
2021/01/27 00:15:28;;;;;;;8.02;4.65;;;5.20;75.60;;;;;;4899566;29;20388;-76
2021/01/27 00:17:55;;;;;;;7.85;4.32;;;5.20;75.70;;;;;;4916676;29;20138;-75
2021/01/27 00:20:23;;;;;;;6.63;4.18;;;5.20;75.60;;;;;;4899538;29;20064;-74
2021/01/27 00:22:49;;;;;;;6.22;4.25;;;5.20;75.60;;;;;;4916617;29;20480;-75
2021/01/27 00:25:17;;;;;;;9.32;4.60;;;5.10;75.50;;;;;;4915543;29;20024;-75
2021/01/27 00:27:42;;;;;;;8.13;4.68;;;5.10;75.30;;;;;;4916486;29;20102;-76
2021/01/27 00:30:22;;;;;;;6.80;4.20;;;5.10;75.30;;;;;;4916390;29;20072;-75
2021/01/27 00:32:48;;;;;;;8.05;4.75;;;5.10;75.20;;;;;;4916413;29;20040;-75
2021/01/27 00:35:16;;;;;;;8.00;4.63;;;5.10;75.10;;;;;;4916527;29;20047;-76
2021/01/27 00:37:42;;;;;;;8.57;4.03;;;5.10;75.10;;;;;;4916435;29;20040;-76
2021/01/27 00:40:08;;;;;;;6.68;4.10;;;5.10;75.10;;;;;;4915173;29;20024;-75
2021/01/27 00:42:35;;;;;;;7.85;4.25;;;5.10;75.00;;;;;;4899441;29;20039;-76
2021/01/27 00:45:01;;;;;;;8.27;4.35;;;5.10;75.00;;;;;;4916403;29;20102;-76
2021/01/27 00:47:27;;;;;;;7.22;4.00;;;5.10;74.90;;;;;;4915158;29;20064;-76
2021/01/27 00:49:53;;;;;;;7.43;4.40;;;5.10;74.80;;;;;;4915127;29;20107;-76
2021/01/27 00:52:19;;;;;;;9.02;4.45;;;5.20;74.60;;;;;;4916324;29;20107;-76
2021/01/27 00:54:44;;;;;;;8.30;4.57;;;5.10;74.40;;;;;;4914993;29;20123;-76
2021/01/27 00:57:10;;;;;;;6.53;4.15;;;5.10;74.30;;;;;;4916490;29;20499;-76
2021/01/27 00:59:35;;;;;;;7.05;4.43;;;5.10;74.20;;;;;;4917516;29;20031;-76
2021/01/27 01:02:01;;;;;;;6.32;4.18;;;5.10;74.20;;;;;;4919976;29;20054;-76
2021/01/27 01:04:27;;;;;;;7.82;4.07;;;5.10;74.30;;;;;;4920013;29;20036;-76
2021/01/27 01:06:52;;;;;;;9.93;4.78;;;5.00;74.00;;;;;;4920123;29;20028;-76
2021/01/27 01:09:18;;;;;;;5.68;3.90;;;5.00;74.00;;;;;;4920102;29;20031;-76
2021/01/27 01:11:44;;;;;;;6.88;4.05;;;5.00;74.10;;;;;;4918637;29;20096;-76
2021/01/27 01:14:09;;;;;;;6.68;4.45;;;5.00;74.10;;;;;;4903146;29;20044;-77
2021/01/27 01:16:38;;;;;;;6.28;4.00;;;5.00;74.20;;;;;;4918494;29;20035;-76
2021/01/27 01:19:06;;;;;;;8.57;4.10;;;5.00;74.10;;;;;;4918222;29;20043;-76
2021/01/27 01:21:31;;;;;;;7.25;4.13;;;4.90;74.10;;;;;;4918517;29;20365;-75
2021/01/27 01:23:57;;;;;;;6.20;3.72;;;4.90;74.10;;;;;;4918381;29;20036;-75
2021/01/27 01:26:22;;;;;;;6.80;3.90;;;4.90;74.10;;;;;;4918440;29;20028;-75
2021/01/27 01:28:48;;;;;;;5.97;3.72;;;4.90;74.10;;;;;;4902572;29;20031;-75
2021/01/27 01:31:14;;;;;;;5.70;3.47;;;4.90;74.20;;;;;;4919529;29;20051;-74
2021/01/27 01:33:39;;;;;;;5.05;3.72;;;4.90;74.20;;;;;;4920042;29;20050;-74
2021/01/27 01:36:05;;;;;;;5.22;3.45;;;4.90;74.20;;;;;;4918129;29;20119;-75
2021/01/27 01:38:31;;;;;;;5.28;3.47;;;4.90;74.20;;;;;;4919294;29;20119;-75
2021/01/27 01:41:02;;;;;;;6.38;3.70;;;4.90;74.10;;;;;;4918018;29;20033;-76
2021/01/27 01:43:31;;;;;;;8.50;3.53;;;4.90;74.10;;;;;;4919546;29;20115;-76
2021/01/27 01:45:59;;;;;;;7.30;3.88;;;5.00;74.10;;;;;;4919278;29;20036;-77
2021/01/27 01:48:47;;;;;;;5.80;4.03;;;5.00;74.10;;;;;;4919211;29;20122;-77
2021/01/27 01:51:22;;;;;;;5.53;3.50;;;5.00;74.10;;;;;;4919074;29;20064;-75
2021/01/27 01:53:52;;;;;;;5.65;3.78;;;4.90;74.00;;;;;;4902231;29;20040;-75
2021/01/27 01:56:23;;;;;;;6.18;4.00;;;5.00;74.80;;;;;;4917790;29;20458;-76
2021/01/27 01:58:52;;;;;;;5.03;3.47;;;5.00;74.10;;;;;;4902029;29;20039;-76
2021/01/27 02:01:20;;;;;;;5.07;3.40;;;5.00;74.10;;;;;;4901723;29;20044;-76
2021/01/27 02:03:48;;;;;;;5.80;3.60;;;5.00;74.10;;;;;;4919124;29;20040;-76
2021/01/27 02:06:16;;;;;;;5.10;3.40;;;5.00;74.10;;;;;;4918832;29;20119;-76
2021/01/27 02:08:54;;;;;;;5.13;3.63;;;5.00;74.20;;;;;;4901801;29;20036;-76
2021/01/27 02:11:38;;;;;;;3.88;3.05;;;5.00;74.20;;;;;;4916442;29;20020;-75
2021/01/27 02:14:18;;;;;;;4.65;3.10;;;5.00;74.20;;;;;;4917247;29;20063;-75
2021/01/27 02:16:50;;;;;;;5.60;3.58;;;5.00;74.30;;;;;;4918603;29;20042;-76
2021/01/27 02:19:33;;;;;;;5.03;3.20;;;5.00;74.40;;;;;;4919155;29;20059;-75
2021/01/27 02:22:01;;;;;;;4.82;3.30;;;4.90;74.30;;;;;;4918370;29;20103;-75
2021/01/27 02:25:19;;;;;;;5.65;3.40;;;4.90;74.40;;;;;;4918315;29;20080;-76
2021/01/27 02:27:52;;;;;;;6.03;3.42;;;4.90;74.50;;;;;;4878843;29;20593;-76
2021/01/27 02:30:20;;;;;;;8.25;3.65;;;4.80;74.60;;;;;;4862899;29;20055;-75
2021/01/27 02:33:18;;;;;;;4.30;3.10;;;4.80;74.70;;;;;;4878485;29;20041;-75
2021/01/27 02:36:09;;;;;;;3.65;3.08;;;4.80;74.90;;;;;;4862908;29;20082;-75
2021/01/27 02:39:01;;;;;;;4.15;2.83;;;4.90;74.90;;;;;;4862918;29;20037;-75
2021/01/27 02:41:52;;;;;;;5.38;3.22;;;4.90;75.00;;;;;;4862856;29;20045;-75
2021/01/27 02:44:24;;;;;;;4.60;3.00;;;4.90;75.00;;;;;;4862689;29;20139;-75
2021/01/27 02:46:52;;;;;;;4.07;2.80;;;4.80;74.90;;;;;;4862686;29;20084;-75
2021/01/27 02:49:33;;;;;;;3.50;2.60;;;4.80;75.10;;;;;;4862859;29;20045;-75
2021/01/27 02:52:07;;;;;;;5.50;2.85;;;4.80;75.20;;;;;;4878169;29;20041;-75
2021/01/27 02:58:19;;;;;;;6.32;3.03;;;4.80;75.30;;;;;;4878882;29;20058;-75
2021/01/27 03:00:50;;;;;;;4.13;2.63;;;4.90;75.40;;;;;;4870495;29;20055;-75
2021/01/27 03:03:29;;;;;;;4.78;2.63;;;4.90;75.40;;;;;;4900799;29;20091;-75
2021/01/27 03:05:59;;;;;;;4.00;2.90;;;4.90;75.40;;;;;;4916468;29;20111;-76
2021/01/27 03:08:27;;;;;;;4.28;2.80;;;4.90;75.40;;;;;;4916532;29;20080;-75
2021/01/27 03:11:10;;;;;;;2.90;2.30;;;4.90;75.40;;;;;;4917924;29;20437;-75
2021/01/27 03:13:37;;;;;;;5.25;3.20;;;4.80;75.40;;;;;;4916476;29;20028;-75
2021/01/27 03:16:08;;;;;;;4.13;2.63;;;4.80;75.50;;;;;;4917606;29;20036;-76
2021/01/27 03:18:38;;;;;;;2.55;2.08;;;4.80;75.50;;;;;;4916175;29;20032;-76
2021/01/27 03:21:20;;;;;;;2.50;2.03;;;4.80;75.50;;;;;;4917586;29;20032;-76
2021/01/27 03:23:52;;;;;;;6.15;2.38;;;4.80;75.70;;;;;;4916237;29;20032;-76
2021/01/27 03:26:25;;;;;;;2.78;1.80;;;4.80;75.60;;;;;;4917858;29;20032;-76
2021/01/27 03:29:17;;;;;;;4.55;2.25;;;4.80;75.60;;;;;;4916108;29;20028;-75
2021/01/27 03:31:43;;;;;;;4.88;2.22;;;4.80;75.60;;;;;;4881042;29;20041;-75
2021/01/27 03:34:14;;;;;;;2.47;1.90;;;4.80;75.70;;;;;;4915756;29;20039;-76
2021/01/27 03:36:49;;;;;;;3.72;2.20;;;4.80;75.80;;;;;;4916964;29;20036;-75
2021/01/27 03:39:15;;;;;;;4.07;1.90;;;4.80;75.80;;;;;;4915546;29;20059;-75
2021/01/27 03:41:48;;;;;;;2.78;1.90;;;4.80;75.80;;;;;;4916924;29;20091;-75
2021/01/27 03:44:45;;;;;;;2.77;1.83;;;4.80;75.90;;;;;;4916996;29;20028;-75
2021/01/27 03:47:22;;;;;;;3.08;2.13;;;4.80;75.90;;;;;;4916061;29;20036;-75
2021/01/27 03:50:12;;;;;;;2.35;1.80;;;4.80;75.90;;;;;;4915430;29;20032;-75
2021/01/27 03:52:39;;;;;;;3.47;1.95;;;4.80;76.00;;;;;;4899571;29;20028;-75
2021/01/27 03:55:31;;;;;;;4.57;2.10;;;4.80;76.10;;;;;;4915133;29;20080;-75
2021/01/27 03:58:08;;;;;;;2.38;1.90;;;4.70;76.10;;;;;;4916621;29;20036;-75
2021/01/27 04:00:34;;;;;;;3.38;1.75;;;4.70;76.30;;;;;;4916853;29;20409;-75
2021/01/27 04:03:18;;;;;;;2.85;1.90;;;4.70;76.40;;;;;;4916603;29;20040;-74
2021/01/27 04:05:44;;;;;;;2.15;1.80;;;4.70;76.50;;;;;;4915265;29;20048;-75
2021/01/27 04:08:10;;;;;;;2.42;1.83;;;4.70;76.60;;;;;;4915413;29;20488;-75
2021/01/27 04:10:36;;;;;;;3.63;2.42;;;4.70;76.70;;;;;;4916566;29;20032;-75
2021/01/27 04:13:02;;;;;;;2.58;2.00;;;4.60;76.80;;;;;;4916417;29;20032;-75
2021/01/27 04:15:28;;;;;;;3.58;1.83;;;4.60;76.90;;;;;;4915082;29;20123;-76
2021/01/27 04:17:54;;;;;;;4.32;2.20;;;4.60;77.10;;;;;;4916401;29;20456;-74
2021/01/27 04:20:20;;;;;;;4.65;1.95;;;4.60;77.20;;;;;;4916389;29;20515;-75
2021/01/27 04:22:46;;;;;;;5.78;2.13;;;4.60;77.30;;;;;;4916611;29;20029;-75
2021/01/27 04:25:13;;;;;;;4.07;2.03;;;4.60;77.30;;;;;;4916325;29;20356;-75
2021/01/27 04:27:39;;;;;;;3.60;1.90;;;4.60;77.40;;;;;;4916249;29;20038;-75
2021/01/27 04:30:06;;;;;;;3.50;2.35;;;4.60;77.40;;;;;;4916647;29;20491;-74
2021/01/27 04:32:32;;;;;;;1.98;1.60;;;4.60;77.40;;;;;;4915290;29;20028;-75
2021/01/27 04:34:57;;;;;;;3.38;2.40;;;4.60;77.40;;;;;;4914611;29;20028;-75
2021/01/27 04:37:23;;;;;;;2.25;1.95;;;4.60;77.50;;;;;;4916610;29;20122;-75
2021/01/27 04:39:49;;;;;;;5.22;2.10;;;4.60;77.40;;;;;;4915008;29;20511;-75
2021/01/27 04:42:14;;;;;;;3.58;2.13;;;4.70;77.50;;;;;;4916333;29;20052;-75
2021/01/27 04:44:40;;;;;;;1.92;1.73;;;4.70;77.50;;;;;;4914930;29;20484;-75
2021/01/27 04:47:27;;;;;;;3.08;2.03;;;4.70;77.30;;;;;;4914698;29;20123;-74
2021/01/27 04:50:05;;;;;;;3.25;1.90;;;4.60;77.40;;;;;;4916407;29;20039;-74
2021/01/27 04:52:54;;;;;;;2.50;2.30;;;4.70;77.50;;;;;;4914710;29;20457;-75
2021/01/27 04:55:23;;;;;;;4.22;2.42;;;4.70;77.50;;;;;;4915954;29;20085;-75
2021/01/27 04:58:31;;;;;;;3.35;2.13;;;4.70;77.50;;;;;;4914727;29;20035;-75
2021/01/27 05:01:03;;;;;;;3.67;2.00;;;4.60;77.50;;;;;;4915838;29;20108;-74
2021/01/27 05:03:41;;;;;;;3.75;2.28;;;4.60;77.60;;;;;;4916422;29;20388;-74
2021/01/27 05:06:14;;;;;;;3.47;2.00;;;4.60;77.70;;;;;;4914715;29;20444;-75
2021/01/27 05:08:54;;;;;;;3.43;2.10;;;4.60;77.80;;;;;;4916279;29;20016;-75
2021/01/27 05:11:20;;;;;;;3.35;1.77;;;4.60;77.90;;;;;;4915939;29;20028;-75
2021/01/27 05:13:54;;;;;;;2.33;1.88;;;4.60;77.80;;;;;;4914743;29;20028;-75
2021/01/27 05:16:21;;;;;;;;;;;4.60;77.90;;;;;;4899444;29;20043;-75
2021/01/27 05:18:50;;;;;;;3.47;2.22;;;4.60;78.20;;;;;;4915905;29;20287;-75
2021/01/27 05:21:27;;;;;;;3.17;1.95;;;4.60;78.20;;;;;;4914467;29;20024;-75
2021/01/27 05:23:54;;;;;;;3.22;2.35;;;4.60;78.30;;;;;;4914493;29;20024;-74
2021/01/27 05:26:21;;;;;;;2.50;2.15;;;4.60;78.30;;;;;;4915819;29;20039;-75
2021/01/27 05:28:59;;;;;;;3.60;2.53;;;4.60;78.40;;;;;;4914482;29;20028;-75
2021/01/27 05:32:01;;;;;;;2.85;2.42;;;4.50;78.50;;;;;;4914528;29;20392;-75
2021/01/27 05:34:37;;;;;;;3.55;2.40;;;4.50;78.60;;;;;;4914920;29;20047;-74
2021/01/27 05:37:31;;;;;;;6.50;3.10;;;4.50;78.80;;;;;;4914526;29;20151;-74
2021/01/27 05:40:09;;;;;;;4.30;2.00;;;4.50;78.90;;;;;;4914435;29;20094;-74
2021/01/27 05:42:37;;;;;;;3.92;2.25;;;4.50;79.00;;;;;;4914793;29;20024;-75
2021/01/27 05:45:24;;;;;;;2.88;2.22;;;4.50;79.10;;;;;;4915772;29;20035;-74
2021/01/27 05:47:50;;;;;;;2.47;2.20;;;4.50;79.30;;;;;;4918598;29;20028;-74
2021/01/27 05:50:32;;;;;;;2.53;2.00;;;4.50;79.30;;;;;;4919131;29;20034;-74
2021/01/27 05:53:31;;;;;;;3.60;2.63;;;4.50;79.60;;;;;;4918955;29;20028;-74
2021/01/27 05:56:05;;;;;;;3.30;2.10;;;4.50;79.70;;;;;;4897712;29;20543;-74
2021/01/27 05:58:37;;;;;;;3.28;2.15;;;4.50;79.70;;;;;;4917937;29;20127;-74
2021/01/27 06:01:15;;;;;;;2.97;2.40;;;4.50;79.80;;;;;;4917724;29;20449;-74
2021/01/27 06:04:12;;;;;;;2.30;1.83;;;4.50;79.90;;;;;;4917785;29;20072;-75
2021/01/27 06:06:49;;;;;;;2.47;2.05;;;4.50;80.00;;;;;;4918919;29;20111;-75
2021/01/27 06:09:38;;;;;;;2.80;2.10;;;4.50;80.10;;;;;;4918878;29;20063;-75
2021/01/27 06:12:05;;;;;;;3.63;2.30;;;4.40;80.10;;;;;;4917719;29;20456;-75
2021/01/27 06:14:31;;;;;;;2.42;2.20;;;4.40;80.20;;;;;;4918700;29;20028;-75
2021/01/27 06:16:57;;;;;;;3.47;2.50;;;4.40;80.40;;;;;;4917428;29;20054;-74
2021/01/27 06:19:25;;;;;;;3.13;2.20;;;4.40;80.50;;;;;;4919021;29;20032;-74
2021/01/27 06:22:15;;;;;;;2.33;2.05;;;4.40;80.60;;;;;;4917465;29;20119;-75
2021/01/27 06:25:02;;;;;;;3.92;2.33;;;4.30;80.80;;;;;;4918803;29;20032;-74
2021/01/27 06:27:36;;;;;;;3.75;2.50;;;4.30;80.90;;;;;;4918728;29;20066;-74
2021/01/27 06:30:18;;;;;;;4.80;2.72;;;4.30;81.10;;;;;;4917281;29;20087;-74
2021/01/27 06:33:11;;;;;;;3.58;2.58;;;4.40;81.30;;;;;;4918682;29;20463;-74
2021/01/27 06:35:46;;;;;;;4.38;2.70;;;4.30;81.40;;;;;;4887535;29;20044;-74
2021/01/27 06:38:24;;;;;;;3.30;2.63;;;4.30;81.50;;;;;;4917311;29;20126;-75
2021/01/27 06:40:58;;;;;;;2.92;2.28;;;4.30;81.60;;;;;;4917326;29;20059;-75
2021/01/27 06:43:46;;;;;;;3.22;2.90;;;4.30;81.70;;;;;;4918719;29;20111;-75
2021/01/27 06:46:17;;;;;;;3.70;2.60;;;4.30;81.80;;;;;;4918428;29;20032;-75
2021/01/27 06:49:05;;;;;;;2.88;2.20;;;4.30;81.80;;;;;;4917252;29;20365;-75
2021/01/27 06:51:55;;;;;;;3.78;2.55;;;4.40;82.00;;;;;;4918582;29;20084;-75
2021/01/27 06:54:39;;;;;;;3.38;2.58;;;4.30;82.00;;;;;;4918265;29;20064;-74
2021/01/27 06:57:07;;;;;;;;;;;4.30;82.10;;;;;;4918222;29;20025;-74
2021/01/27 06:59:47;;;;;;;5.47;2.70;;;4.40;82.20;;;;;;4916800;29;19907;-75
2021/01/27 07:02:29;;;;;;;2.95;2.50;;;4.30;82.10;;;;;;4916571;29;20086;-75
2021/01/27 07:05:14;;;;;;;2.60;2.40;;;4.30;82.20;;;;;;4918155;29;20047;-75
2021/01/27 07:07:45;;;;;;;5.43;2.65;;;4.30;82.40;;;;;;4917919;29;20032;-75
2021/01/27 07:10:28;;;;;;;4.10;3.13;;;4.30;82.50;;;;;;4917914;29;20028;-75
2021/01/27 07:13:16;;;;;;;3.08;2.58;;;4.30;82.60;;;;;;4917844;29;20476;-74
2021/01/27 07:16:09;;;;;;;4.10;2.55;;;4.20;82.60;;;;;;4917719;29;20059;-75
2021/01/27 07:18:52;;;;;;;3.30;2.95;;;4.30;82.80;;;;;;4917149;29;20107;-75
2021/01/27 07:21:21;;;;;;;3.90;3.40;;;4.20;82.80;;;;;;4916395;29;20028;-75
2021/01/27 07:24:17;;;;;;;3.22;2.92;;;4.20;82.80;;;;;;4917642;29;20044;-74
2021/01/27 07:26:50;;;;;;;3.25;2.95;;;4.20;82.90;;;;;;4917563;29;20552;-74
2021/01/27 07:29:21;;;;;;;3.40;3.10;;;4.20;82.90;;;;;;4917770;29;20028;-75
2021/01/27 07:31:52;;;;;;;3.28;2.97;;;4.20;83.10;;;;;;4916339;29;20089;-74
2021/01/27 07:34:20;;;;;;;3.25;2.88;;;4.20;83.20;;;;;;4916084;29;20024;-75
2021/01/27 07:37:17;;;;;;;3.33;3.03;;;4.20;83.20;;;;;;4916169;29;20060;-73
2021/01/27 07:39:54;;;;;;;3.53;2.97;;;4.30;83.40;;;;;;4916660;29;20050;-74
2021/01/27 07:42:30;;;;;;;4.53;2.95;;;4.30;83.30;;;;;;4916160;29;20084;-74
2021/01/27 07:44:59;;;;;;;3.85;3.10;;;4.30;83.30;;;;;;4916022;29;20028;-74
2021/01/27 07:47:49;;;;;;;3.50;3.13;;;4.30;83.40;;;;;;4916149;29;20040;-74
2021/01/27 07:50:17;;;;;;;3.45;3.15;;;4.30;83.50;;;;;;4916055;29;20128;-74
2021/01/27 07:53:10;;;;;;;3.50;2.92;;;4.30;83.40;;;;;;4917139;29;20111;-74
2021/01/27 07:55:52;;;;;;;5.05;2.90;;;4.30;83.50;;;;;;4915682;29;20063;-75
2021/01/27 07:58:45;;;;;;;3.30;3.00;;;4.30;83.50;;;;;;4917207;29;20420;-74
2021/01/27 08:01:40;;;;;;;3.50;3.20;;;4.30;83.60;;;;;;4917189;29;20130;-74
2021/01/27 08:04:32;;;;;;;3.55;3.25;;;4.30;83.70;;;;;;4915752;29;20028;-75
2021/01/27 08:06:58;;;;;;;3.58;3.13;;;4.30;83.70;;;;;;4915674;29;20035;-75
2021/01/27 08:09:37;;;;;;;6.35;4.25;;;4.30;83.80;;;;;;4914990;29;20024;-75
2021/01/27 08:12:31;;;;;;;9.80;5.85;;;4.30;83.90;;;;;;4916982;29;20021;-75
2021/01/27 08:15:06;;;;;;;8.55;6.03;;;4.30;84.00;;;;;;4916941;29;20087;-75
2021/01/27 08:17:46;;;;;;;6.05;4.82;;;4.40;84.00;;;;;;4916925;29;20084;-74
2021/01/27 08:20:27;;;;;;;7.47;3.92;;;4.40;84.10;;;;;;4915555;29;20042;-75
2021/01/27 08:22:59;;;;;;;5.68;4.05;;;4.40;84.10;;;;;;4915335;29;20020;-74
2021/01/27 08:25:53;;;;;;;4.45;3.75;;;4.40;84.10;;;;;;4916796;29;20039;-74
2021/01/27 08:28:36;;;;;;;30.95;5.93;;;4.50;84.10;;;;;;4895839;29;20040;-74
2021/01/27 08:31:16;;;;;;;64.57;7.03;;;4.50;84.10;;;;;;4915396;29;20485;-73
2021/01/27 08:33:47;;;;;;;7.40;4.18;;;4.50;84.20;;;;;;4915539;29;20032;-74
2021/01/27 08:36:28;;;;;;;4.97;3.72;;;4.50;84.20;;;;;;4915404;29;20083;-74
2021/01/27 08:38:57;;;;;;;5.75;4.03;;;4.60;84.30;;;;;;4916626;29;20083;-75
2021/01/27 08:41:50;;;;;;;6.47;4.10;;;4.50;84.30;;;;;;4916659;29;20380;-74
2021/01/27 08:44:19;;;;;;;4.10;3.78;;;4.60;84.40;;;;;;4916597;29;20499;-74
2021/01/27 08:46:48;;;;;;;5.10;4.40;;;4.50;84.40;;;;;;4916663;29;20080;-74
2021/01/27 08:49:42;;;;;;;7.35;5.00;;;4.60;84.60;;;;;;4916797;29;20017;-74
2021/01/27 08:52:11;;;;;;;4.40;4.00;;;4.60;84.70;;;;;;4898027;29;20397;-74
2021/01/27 08:54:40;;;;;;;6.05;4.90;;;4.60;84.80;;;;;;4915139;29;20040;-74
2021/01/27 08:57:24;;;;;;;5.50;4.50;;;4.60;84.80;;;;;;4916624;29;20024;-74
2021/01/27 09:00:08;;;;;;;5.38;4.80;;;4.60;84.90;;;;;;4916602;29;20233;-75
2021/01/27 09:02:45;;;;;;;4.32;3.90;;;4.60;84.90;;;;;;4916375;29;20111;-75
2021/01/27 09:05:26;;;;;;;10.70;4.93;;;4.60;84.90;;;;;;4916857;29;20104;-76
2021/01/27 09:07:58;;;;;;;4.07;3.67;;;4.60;84.90;;;;;;4915204;29;20112;-75
2021/01/27 09:10:29;;;;;;;4.18;3.78;;;4.70;85.10;;;;;;4916536;29;20028;-75
2021/01/27 09:12:56;;;;;;;4.53;4.13;;;4.70;85.10;;;;;;4916568;29;20032;-74
2021/01/27 09:15:26;;;;;;;5.22;4.28;;;4.70;85.10;;;;;;4916539;29;20077;-74
2021/01/27 09:17:52;;;;;;;6.63;4.03;;;4.70;85.10;;;;;;4916406;29;20516;-74
2021/01/27 09:20:26;;;;;;;6.60;3.20;;;4.70;85.20;;;;;;4916191;29;20103;-75
2021/01/27 09:23:00;;;;;;;4.65;3.80;;;4.70;85.10;;;;;;4918580;29;20052;-76
2021/01/27 09:25:27;;;;;;;3.72;3.33;;;4.70;85.20;;;;;;4919847;29;20096;-75
2021/01/27 09:28:05;;;;;;;4.28;3.88;;;4.80;85.30;;;;;;4920151;29;20032;-75
2021/01/27 09:30:32;;;;;;;4.07;3.00;;;4.80;85.30;;;;;;4918453;29;20032;-75
2021/01/27 09:33:16;;;;;;;3.72;2.80;;;4.80;85.20;;;;;;4918388;29;20044;-75
2021/01/27 09:35:43;;;;;;;3.20;2.88;;;4.90;85.30;;;;;;4919760;29;20032;-76
2021/01/27 09:38:13;;;;;;;5.53;4.20;;;4.90;85.30;;;;;;4919884;29;20048;-75
2021/01/27 09:40:43;;;;;;;5.15;3.80;;;4.90;85.30;;;;;;4920158;29;20028;-75
2021/01/27 09:43:12;;;;;;;5.82;3.45;;;4.90;85.30;;;;;;4919831;29;20119;-75
2021/01/27 09:45:40;;;;;;;4.03;3.63;;;5.00;85.40;;;;;;4919758;29;20432;-75
2021/01/27 09:48:08;;;;;;;8.40;6.20;;;4.90;85.30;;;;;;4918609;29;20024;-76
2021/01/27 09:50:38;;;;;;;7.13;4.90;;;4.90;85.40;;;;;;4902606;29;20024;-76
2021/01/27 09:53:05;;;;;;;5.00;3.63;;;5.00;85.40;;;;;;4918422;29;20024;-76
2021/01/27 09:55:31;;;;;;;3.95;3.60;;;4.90;85.50;;;;;;4919943;29;20024;-76
2021/01/27 09:57:57;;;;;;;3.78;3.40;;;4.90;85.50;;;;;;4919597;29;20531;-74
2021/01/27 10:00:37;;;;;;;4.07;3.67;;;5.00;85.60;;;;;;4919508;29;20023;-74
2021/01/27 10:03:21;;;;;;;4.28;3.67;;;5.00;85.60;;;;;;4918204;29;20044;-74
2021/01/27 10:05:47;;;;;;;5.20;4.05;;;5.00;85.60;;;;;;4919290;29;20060;-75
2021/01/27 10:08:18;;;;;;;4.97;4.20;;;5.10;85.60;;;;;;4918170;29;20455;-75
2021/01/27 10:10:44;;;;;;;5.38;4.70;;;5.10;85.70;;;;;;4918132;29;20040;-74
2021/01/27 10:13:11;;;;;;;5.90;4.80;;;5.10;85.70;;;;;;4918035;29;20071;-74
2021/01/27 10:15:36;;;;;;;5.18;4.40;;;5.00;85.70;;;;;;4917926;29;20038;-75
2021/01/27 10:18:09;;;;;;;4.55;4.07;;;5.00;85.90;;;;;;4918216;29;20028;-75
2021/01/27 10:20:37;;;;;;;4.85;4.43;;;5.00;86.00;;;;;;4919751;29;20099;-75
2021/01/27 10:23:05;;;;;;;4.90;4.40;;;5.10;86.00;;;;;;4917957;29;20031;-75
2021/01/27 10:25:45;;;;;;;6.32;5.70;;;5.10;86.00;;;;;;4919240;29;20047;-75
2021/01/27 10:28:19;;;;;;;5.88;5.25;;;5.20;86.00;;;;;;4918023;29;20412;-74
2021/01/27 10:30:55;;;;;;;5.28;4.78;;;5.20;86.00;;;;;;4919598;29;20035;-73
2021/01/27 10:33:48;;;;;;;5.40;4.90;;;5.20;86.10;;;;;;4917169;29;20080;-76
2021/01/27 10:36:38;;;;;;;5.93;5.32;;;5.20;86.00;;;;;;4918907;29;20039;-75
2021/01/27 10:39:31;;;;;;;6.95;5.10;;;5.20;86.10;;;;;;4917785;29;20500;-75
2021/01/27 10:42:06;;;;;;;7.63;5.20;;;5.30;86.20;;;;;;4900763;29;20047;-75
2021/01/27 10:44:36;;;;;;;6.25;5.63;;;5.20;86.10;;;;;;4918350;29;20028;-75
2021/01/27 10:47:08;;;;;;;6.18;5.57;;;5.30;86.10;;;;;;4918768;29;20032;-75
2021/01/27 10:49:40;;;;;;;6.03;5.43;;;5.20;86.20;;;;;;4917706;29;20039;-75
2021/01/27 10:52:13;;;;;;;6.30;5.63;;;5.30;86.30;;;;;;4917151;29;20034;-75
2021/01/27 10:54:39;;;;;;;6.90;6.20;;;5.30;86.30;;;;;;4918727;29;20035;-75
2021/01/27 10:57:05;;;;;;;6.85;6.10;;;5.30;86.30;;;;;;4918388;29;20024;-75
2021/01/27 10:59:30;;;;;;;6.75;5.82;;;5.30;86.30;;;;;;4918716;29;20342;-75
2021/01/27 11:01:56;;;;;;;6.93;6.25;;;5.40;86.30;;;;;;4918562;29;20106;-75
2021/01/27 11:04:22;;;;;;;7.97;7.25;;;5.40;86.30;;;;;;4917347;29;20024;-75
2021/01/27 11:06:47;;;;;;;16.13;7.20;;;5.40;86.30;;;;;;4917062;29;20149;-74
2021/01/27 11:09:13;;;;;;;7.72;6.88;;;5.40;86.40;;;;;;4918365;29;20031;-75
2021/01/27 11:11:39;;;;;;;8.25;6.82;;;5.40;86.50;;;;;;4918034;29;20023;-74
2021/01/27 11:14:06;;;;;;;8.95;7.20;;;5.40;86.60;;;;;;4917834;29;20103;-75
2021/01/27 11:16:32;;;;;;;8.07;7.25;;;5.40;86.60;;;;;;4917907;29;20345;-74
2021/01/27 11:18:58;;;;;;;9.25;8.25;;;5.40;86.70;;;;;;4918230;29;20028;-75
2021/01/27 11:21:24;;;;;;;9.70;7.78;;;5.40;86.90;;;;;;4900795;29;20028;-75
2021/01/27 11:23:50;;;;;;;10.88;8.50;;;5.40;87.20;;;;;;4916386;29;20134;-74
2021/01/27 11:26:19;;;;;;;11.45;9.40;;;5.30;87.30;;;;;;4917674;29;20400;-76
2021/01/27 11:28:47;;;;;;;8.95;7.57;;;5.40;87.60;;;;;;4916457;29;20060;-74
2021/01/27 11:31:13;;;;;;;12.32;9.13;;;5.40;87.60;;;;;;4917880;29;20030;-75
2021/01/27 11:33:39;;;;;;;58.00;10.10;;;5.30;87.70;;;;;;4917575;29;20028;-75
2021/01/27 11:36:05;;;;;;;12.50;9.32;;;5.40;87.90;;;;;;4917374;29;20052;-75
2021/01/27 11:38:30;;;;;;;9.85;8.40;;;5.40;88.00;;;;;;4900457;29;20025;-75
2021/01/27 11:40:56;;;;;;;46.60;11.23;;;5.40;88.00;;;;;;4915823;29;20032;-74
2021/01/27 11:43:22;;;;;;;9.93;8.85;;;5.40;88.20;;;;;;4915646;29;20043;-75
2021/01/27 11:45:48;;;;;;;11.75;9.45;;;5.40;88.10;;;;;;4915552;29;20025;-74
2021/01/27 11:48:13;;;;;;;9.73;8.52;;;5.40;88.20;;;;;;4916084;29;20024;-75
2021/01/27 11:50:39;;;;;;;9.43;8.20;;;5.50;88.20;;;;;;4900070;29;20091;-75
2021/01/27 11:53:04;;;;;;;12.15;8.73;;;5.50;88.20;;;;;;4917184;29;20044;-75
2021/01/27 11:55:30;;;;;;;11.90;9.73;;;5.50;88.20;;;;;;4916416;29;20032;-75
2021/01/27 11:57:56;;;;;;;10.65;9.23;;;5.60;88.20;;;;;;4917118;29;20492;-75
2021/01/27 12:00:22;;;;;;;11.18;9.30;;;5.70;88.10;;;;;;4916988;29;20373;-75
2021/01/27 12:02:48;;;;;;;11.45;9.98;;;5.70;88.10;;;;;;4915577;29;20056;-75
2021/01/27 12:05:15;;;;;;;29.23;12.02;;;5.70;88.00;;;;;;4915723;29;20036;-75
2021/01/27 12:07:41;;;;;;;13.85;10.40;;;5.80;88.20;;;;;;4917087;29;20029;-75
2021/01/27 12:10:07;;;;;;;21.55;10.93;;;5.70;88.10;;;;;;4900065;29;20472;-75
2021/01/27 12:12:33;;;;;;;12.57;10.65;;;5.80;88.20;;;;;;4913835;29;20024;-75
2021/01/27 12:14:59;;;;;;;13.40;10.90;;;5.80;88.20;;;;;;4915396;29;20024;-75
2021/01/27 12:17:25;;;;;;;15.15;10.32;;;5.80;88.30;;;;;;4917290;29;20024;-75
2021/01/27 12:19:51;;;;;;;17.88;11.00;;;5.80;88.30;;;;;;4899841;29;20032;-75
2021/01/27 12:22:16;;;;;;;13.82;10.80;;;5.90;88.40;;;;;;4916835;29;20484;-75
2021/01/27 12:24:42;;;;;;;13.15;10.82;;;5.90;88.40;;;;;;4916805;29;20102;-75
2021/01/27 12:27:08;;;;;;;39.80;12.40;;;5.90;88.40;;;;;;4899783;29;20417;-75
2021/01/27 12:29:33;;;;;;;17.52;11.63;;;6.00;88.40;;;;;;4916972;29;20028;-75
2021/01/27 12:31:59;;;;;;;15.63;11.68;;;6.00;88.30;;;;;;4900007;29;20068;-75
2021/01/27 12:34:25;;;;;;;14.27;11.20;;;6.10;88.30;;;;;;4899672;29;20417;-75
2021/01/27 12:36:50;;;;;;;13.55;11.18;;;6.10;88.30;;;;;;4917240;29;20026;-75
2021/01/27 12:39:16;;;;;;;14.30;11.65;;;6.10;88.90;;;;;;4899702;29;20043;-75
2021/01/27 12:41:43;;;;;;;15.93;11.70;;;6.10;88.20;;;;;;4899670;29;20032;-75
2021/01/27 12:44:08;;;;;;;16.70;12.90;;;6.10;88.30;;;;;;4916687;29;20103;-75
2021/01/27 12:46:34;;;;;;;16.95;12.13;;;6.10;88.20;;;;;;4916784;29;20111;-75
2021/01/27 12:49:00;;;;;;;14.88;11.70;;;6.10;88.30;;;;;;4899508;29;20032;-75
2021/01/27 12:51:26;;;;;;;13.90;11.48;;;6.20;88.40;;;;;;4899651;29;20031;-75
2021/01/27 12:53:51;;;;;;;17.20;13.15;;;6.20;88.40;;;;;;4916625;29;20028;-75
2021/01/27 12:56:17;;;;;;;17.65;12.48;;;6.20;88.40;;;;;;4901820;29;20111;-75
2021/01/27 12:58:44;;;;;;;15.00;12.13;;;6.20;88.40;;;;;;4921061;29;20025;-74
2021/01/27 13:01:09;;;;;;;18.70;12.15;;;6.20;88.40;;;;;;4920375;29;20412;-76
2021/01/27 13:03:35;;;;;;;13.65;10.82;;;6.30;88.60;;;;;;4920773;29;20032;-75
2021/01/27 13:06:01;;;;;;;14.88;12.27;;;6.30;88.50;;;;;;4903297;29;20035;-75
2021/01/27 13:08:27;;;;;;;15.68;13.23;;;6.40;88.60;;;;;;4920638;29;20088;-75
2021/01/27 13:10:53;;;;;;;16.08;12.45;;;6.30;88.50;;;;;;4903211;29;20043;-75
2021/01/27 13:13:18;;;;;;;14.73;12.00;;;6.40;88.60;;;;;;4919388;29;20034;-75
2021/01/27 13:15:44;;;;;;;16.85;11.15;;;6.40;88.60;;;;;;4919823;29;20118;-75
2021/01/27 13:18:10;;;;;;;16.02;11.95;;;6.40;88.60;;;;;;4920144;29;20036;-75
2021/01/27 13:20:36;;;;;;;14.50;11.55;;;6.50;88.70;;;;;;4919986;29;20028;-75
2021/01/27 13:23:03;;;;;;;14.10;10.57;;;6.50;88.70;;;;;;4919954;29;20362;-75
2021/01/27 13:25:29;;;;;;;18.90;12.45;;;6.50;88.60;;;;;;4918509;29;20052;-75
2021/01/27 13:27:55;;;;;;;15.23;12.38;;;6.60;88.70;;;;;;4919690;29;20115;-75